sensor_id;sensor_type;location;lat;lon;timestamp;pressure;altitude;pressure_sealevel;temperature;humidity
4767;BME280;2397;53.576;9.746;2023-04-30T00:00:27;102297.81;;;5.93;71.28
4767;BME280;2397;53.576;9.746;2023-04-30T00:02:54;102300.78;;;5.87;71.41
4767;BME280;2397;53.576;9.746;2023-04-30T00:05:21;102306.03;;;5.87;72.26
4767;BME280;2397;53.576;9.746;2023-04-30T00:07:47;102303.56;;;5.84;71.33
4767;BME280;2397;53.576;9.746;2023-04-30T00:10:14;102303.03;;;5.77;71.36
4767;BME280;2397;53.576;9.746;2023-04-30T00:12:40;102309.09;;;5.78;71.38
4767;BME280;2397;53.576;9.746;2023-04-30T00:15:07;102311.88;;;5.75;72.13
4767;BME280;2397;53.576;9.746;2023-04-30T00:17:34;102310.59;;;5.66;72.24
4767;BME280;2397;53.576;9.746;2023-04-30T00:20:00;102310.34;;;5.71;71.97
4767;BME280;2397;53.576;9.746;2023-04-30T00:22:27;102308.06;;;5.65;72.59
4767;BME280;2397;53.576;9.746;2023-04-30T00:24:54;102323.56;;;5.52;72.89
4767;BME280;2397;53.576;9.746;2023-04-30T00:27:20;102317.72;;;5.47;72.54
4767;BME280;2397;53.576;9.746;2023-04-30T00:29:47;102328.38;;;5.44;72.72
4767;BME280;2397;53.576;9.746;2023-04-30T00:32:13;102327.53;;;5.44;72.81
4767;BME280;2397;53.576;9.746;2023-04-30T00:34:40;102317.97;;;5.43;72.10
4767;BME280;2397;53.576;9.746;2023-04-30T00:37:07;102321.69;;;5.39;71.83
4767;BME280;2397;53.576;9.746;2023-04-30T00:39:34;102325.34;;;5.35;72.57
4767;BME280;2397;53.576;9.746;2023-04-30T00:42:00;102328.09;;;5.33;72.08
4767;BME280;2397;53.576;9.746;2023-04-30T00:44:28;102327.44;;;5.28;73.06
4767;BME280;2397;53.576;9.746;2023-04-30T00:46:54;102329.63;;;5.20;73.36
4767;BME280;2397;53.576;9.746;2023-04-30T00:49:21;102335.47;;;5.25;73.44
4767;BME280;2397;53.576;9.746;2023-04-30T00:51:48;102331.16;;;5.24;73.46
4767;BME280;2397;53.576;9.746;2023-04-30T00:54:15;102334.47;;;5.28;72.25
4767;BME280;2397;53.576;9.746;2023-04-30T00:56:41;102331.88;;;5.28;72.82
4767;BME280;2397;53.576;9.746;2023-04-30T00:59:09;102333.47;;;5.30;72.91
4767;BME280;2397;53.576;9.746;2023-04-30T01:01:36;102333.94;;;5.21;73.44
4767;BME280;2397;53.576;9.746;2023-04-30T01:04:03;102343.13;;;5.13;72.99
4767;BME280;2397;53.576;9.746;2023-04-30T01:06:30;102340.50;;;5.13;72.72
4767;BME280;2397;53.576;9.746;2023-04-30T01:08:57;102337.78;;;5.14;73.66
4767;BME280;2397;53.576;9.746;2023-04-30T01:11:39;102344.81;;;5.14;73.84
4767;BME280;2397;53.576;9.746;2023-04-30T01:14:26;102346.41;;;5.16;72.50
4767;BME280;2397;53.576;9.746;2023-04-30T01:17:20;102348.25;;;5.14;72.54
4767;BME280;2397;53.576;9.746;2023-04-30T01:19:48;102343.25;;;5.10;72.29
4767;BME280;2397;53.576;9.746;2023-04-30T01:22:31;102345.88;;;5.10;73.29
4767;BME280;2397;53.576;9.746;2023-04-30T01:28:07;102346.88;;;5.07;72.88
4767;BME280;2397;53.576;9.746;2023-04-30T01:30:35;102345.09;;;5.08;73.82
4767;BME280;2397;53.576;9.746;2023-04-30T01:33:02;102343.97;;;4.96;72.02
4767;BME280;2397;53.576;9.746;2023-04-30T01:38:27;102347.09;;;4.86;73.25
4767;BME280;2397;53.576;9.746;2023-04-30T01:41:09;102351.38;;;4.87;72.78
4767;BME280;2397;53.576;9.746;2023-04-30T01:46:31;102363.72;;;4.85;73.61
4767;BME280;2397;53.576;9.746;2023-04-30T01:49:11;102357.16;;;4.76;72.86
4767;BME280;2397;53.576;9.746;2023-04-30T01:51:44;102351.38;;;4.70;72.59
4767;BME280;2397;53.576;9.746;2023-04-30T01:57:02;102363.22;;;4.60;73.47
4767;BME280;2397;53.576;9.746;2023-04-30T01:59:35;102361.81;;;4.53;74.07
4767;BME280;2397;53.576;9.746;2023-04-30T02:02:04;102367.97;;;4.52;74.25
4767;BME280;2397;53.576;9.746;2023-04-30T02:04:31;102375.00;;;4.50;74.41
4767;BME280;2397;53.576;9.746;2023-04-30T02:06:58;102367.97;;;4.52;74.22
4767;BME280;2397;53.576;9.746;2023-04-30T02:09:25;102371.63;;;4.48;74.52
4767;BME280;2397;53.576;9.746;2023-04-30T02:11:52;102376.56;;;4.54;74.75
4767;BME280;2397;53.576;9.746;2023-04-30T02:14:18;102373.31;;;4.49;74.28
4767;BME280;2397;53.576;9.746;2023-04-30T02:16:45;102374.13;;;4.51;74.43
4767;BME280;2397;53.576;9.746;2023-04-30T02:19:11;102382.31;;;4.43;74.85
4767;BME280;2397;53.576;9.746;2023-04-30T02:21:38;102383.91;;;4.46;74.56
4767;BME280;2397;53.576;9.746;2023-04-30T02:24:05;102381.97;;;4.51;73.71
4767;BME280;2397;53.576;9.746;2023-04-30T02:26:31;102378.41;;;4.52;73.88
4767;BME280;2397;53.576;9.746;2023-04-30T02:28:58;102383.66;;;4.52;74.51
4767;BME280;2397;53.576;9.746;2023-04-30T02:31:24;102388.25;;;4.47;74.24
4767;BME280;2397;53.576;9.746;2023-04-30T02:33:51;102393.31;;;4.50;73.21
4767;BME280;2397;53.576;9.746;2023-04-30T02:36:18;102397.66;;;4.51;73.82
4767;BME280;2397;53.576;9.746;2023-04-30T02:38:45;102393.06;;;4.37;73.34
4767;BME280;2397;53.576;9.746;2023-04-30T02:41:12;102391.41;;;4.35;74.07
4767;BME280;2397;53.576;9.746;2023-04-30T02:43:38;102390.28;;;4.40;74.25
4767;BME280;2397;53.576;9.746;2023-04-30T02:46:05;102393.13;;;4.36;73.73
4767;BME280;2397;53.576;9.746;2023-04-30T02:48:31;102390.16;;;4.25;74.15
4767;BME280;2397;53.576;9.746;2023-04-30T02:50:58;102390.56;;;4.16;74.17
4767;BME280;2397;53.576;9.746;2023-04-30T02:53:25;102385.41;;;4.14;74.67
4767;BME280;2397;53.576;9.746;2023-04-30T02:55:51;102387.81;;;4.19;74.90
4767;BME280;2397;53.576;9.746;2023-04-30T02:58:18;102386.28;;;4.15;74.60
4767;BME280;2397;53.576;9.746;2023-04-30T03:00:45;102393.06;;;4.19;74.62
4767;BME280;2397;53.576;9.746;2023-04-30T03:03:11;102389.16;;;4.09;74.46
4767;BME280;2397;53.576;9.746;2023-04-30T03:05:38;102395.38;;;4.06;75.00
4767;BME280;2397;53.576;9.746;2023-04-30T03:08:04;102397.78;;;4.11;75.36
4767;BME280;2397;53.576;9.746;2023-04-30T03:10:31;102400.19;;;4.15;75.06
4767;BME280;2397;53.576;9.746;2023-04-30T03:12:58;102394.88;;;4.17;75.97
4767;BME280;2397;53.576;9.746;2023-04-30T03:15:24;102397.44;;;4.18;75.62
4767;BME280;2397;53.576;9.746;2023-04-30T03:17:51;102404.31;;;4.21;75.94
4767;BME280;2397;53.576;9.746;2023-04-30T03:20:17;102398.97;;;4.22;75.99
4767;BME280;2397;53.576;9.746;2023-04-30T03:22:44;102406.69;;;4.25;76.23
4767;BME280;2397;53.576;9.746;2023-04-30T03:25:11;102403.31;;;4.23;75.92
4767;BME280;2397;53.576;9.746;2023-04-30T03:27:37;102404.94;;;4.26;75.45
4767;BME280;2397;53.576;9.746;2023-04-30T03:30:04;102409.09;;;4.30;75.78
4767;BME280;2397;53.576;9.746;2023-04-30T03:32:32;102404.13;;;4.24;75.45
4767;BME280;2397;53.576;9.746;2023-04-30T03:34:59;102411.06;;;4.25;76.28
4767;BME280;2397;53.576;9.746;2023-04-30T03:37:25;102412.63;;;4.29;75.98
4767;BME280;2397;53.576;9.746;2023-04-30T03:39:52;102412.91;;;4.23;75.89
4767;BME280;2397;53.576;9.746;2023-04-30T03:42:19;102413.91;;;4.20;76.49
4767;BME280;2397;53.576;9.746;2023-04-30T03:44:46;102414.75;;;4.21;76.48
4767;BME280;2397;53.576;9.746;2023-04-30T03:47:13;102426.59;;;4.28;76.67
4767;BME280;2397;53.576;9.746;2023-04-30T03:49:39;102417.72;;;4.32;76.60
4767;BME280;2397;53.576;9.746;2023-04-30T03:52:06;102415.25;;;4.29;77.21
4767;BME280;2397;53.576;9.746;2023-04-30T03:54:32;102420.22;;;4.33;76.39
4767;BME280;2397;53.576;9.746;2023-04-30T03:57:00;102419.09;;;4.39;76.97
4767;BME280;2397;53.576;9.746;2023-04-30T03:59:30;102408.25;;;4.11;77.37
4767;BME280;2397;53.576;9.746;2023-04-30T04:01:59;102415.59;;;4.03;78.22
4767;BME280;2397;53.576;9.746;2023-04-30T04:04:26;102412.28;;;4.18;77.23
4767;BME280;2397;53.576;9.746;2023-04-30T04:06:52;102414.94;;;4.16;78.02
4767;BME280;2397;53.576;9.746;2023-04-30T04:09:19;102427.66;;;4.24;77.93
4767;BME280;2397;53.576;9.746;2023-04-30T04:11:46;102426.03;;;4.21;78.06
4767;BME280;2397;53.576;9.746;2023-04-30T04:14:12;102426.31;;;4.34;78.30
4767;BME280;2397;53.576;9.746;2023-04-30T04:16:40;102426.75;;;4.25;78.35
4767;BME280;2397;53.576;9.746;2023-04-30T04:19:07;102423.78;;;4.14;78.05
4767;BME280;2397;53.576;9.746;2023-04-30T04:21:35;102424.78;;;4.30;78.20
4767;BME280;2397;53.576;9.746;2023-04-30T04:24:06;102427.31;;;4.31;78.61
4767;BME280;2397;53.576;9.746;2023-04-30T04:26:35;102428.00;;;4.35;78.57
4767;BME280;2397;53.576;9.746;2023-04-30T04:29:02;102431.13;;;4.43;78.09
4767;BME280;2397;53.576;9.746;2023-04-30T04:31:30;102442.28;;;4.46;78.34
4767;BME280;2397;53.576;9.746;2023-04-30T04:33:58;102444.84;;;4.48;77.72
4767;BME280;2397;53.576;9.746;2023-04-30T04:36:26;102440.88;;;4.58;77.62
4767;BME280;2397;53.576;9.746;2023-04-30T04:38:57;102438.81;;;4.64;77.64
4767;BME280;2397;53.576;9.746;2023-04-30T04:41:29;102440.03;;;4.57;77.29
4767;BME280;2397;53.576;9.746;2023-04-30T04:43:56;102448.63;;;4.59;77.77
4767;BME280;2397;53.576;9.746;2023-04-30T04:46:23;102442.13;;;4.68;78.13
4767;BME280;2397;53.576;9.746;2023-04-30T04:48:51;102442.00;;;4.71;78.22
4767;BME280;2397;53.576;9.746;2023-04-30T04:51:18;102453.94;;;4.76;78.29
4767;BME280;2397;53.576;9.746;2023-04-30T04:53:45;102456.28;;;4.82;77.99
4767;BME280;2397;53.576;9.746;2023-04-30T04:56:12;102453.59;;;4.84;78.56
4767;BME280;2397;53.576;9.746;2023-04-30T04:58:40;102458.53;;;4.71;78.17
4767;BME280;2397;53.576;9.746;2023-04-30T05:01:07;102453.44;;;4.68;78.31
4767;BME280;2397;53.576;9.746;2023-04-30T05:03:34;102459.16;;;4.76;78.33
4767;BME280;2397;53.576;9.746;2023-04-30T05:06:04;102462.84;;;4.91;78.94
4767;BME280;2397;53.576;9.746;2023-04-30T05:08:31;102465.78;;;5.02;78.82
4767;BME280;2397;53.576;9.746;2023-04-30T05:10:57;102467.94;;;5.11;78.25
4767;BME280;2397;53.576;9.746;2023-04-30T05:13:24;102473.97;;;4.94;78.91
4767;BME280;2397;53.576;9.746;2023-04-30T05:15:52;102486.19;;;5.12;78.54
4767;BME280;2397;53.576;9.746;2023-04-30T05:18:19;102480.44;;;5.23;78.06
4767;BME280;2397;53.576;9.746;2023-04-30T05:20:46;102484.16;;;5.36;78.33
4767;BME280;2397;53.576;9.746;2023-04-30T05:23:12;102483.31;;;5.52;78.91
4767;BME280;2397;53.576;9.746;2023-04-30T05:25:39;102492.38;;;5.62;78.75
4767;BME280;2397;53.576;9.746;2023-04-30T05:28:05;102489.84;;;5.78;78.04
4767;BME280;2397;53.576;9.746;2023-04-30T05:30:32;102492.19;;;5.84;77.67
4767;BME280;2397;53.576;9.746;2023-04-30T05:32:58;102493.09;;;6.00;77.79
4767;BME280;2397;53.576;9.746;2023-04-30T05:35:25;102493.63;;;6.06;77.51
4767;BME280;2397;53.576;9.746;2023-04-30T05:37:51;102502.84;;;6.13;76.54
4767;BME280;2397;53.576;9.746;2023-04-30T05:40:18;102494.69;;;6.19;76.46
4767;BME280;2397;53.576;9.746;2023-04-30T05:42:45;102498.69;;;6.09;75.93
4767;BME280;2397;53.576;9.746;2023-04-30T05:45:12;102494.41;;;6.08;75.52
4767;BME280;2397;53.576;9.746;2023-04-30T05:47:40;102500.72;;;6.04;75.43
4767;BME280;2397;53.576;9.746;2023-04-30T05:50:08;102502.09;;;6.11;75.60
4767;BME280;2397;53.576;9.746;2023-04-30T05:52:35;102496.72;;;6.30;75.63
4767;BME280;2397;53.576;9.746;2023-04-30T05:55:01;102504.41;;;6.50;75.16
4767;BME280;2397;53.576;9.746;2023-04-30T05:57:28;102502.53;;;6.52;73.63
4767;BME280;2397;53.576;9.746;2023-04-30T05:59:54;102506.44;;;6.60;74.52
4767;BME280;2397;53.576;9.746;2023-04-30T06:02:21;102502.03;;;6.61;74.83
4767;BME280;2397;53.576;9.746;2023-04-30T06:04:48;102494.69;;;6.67;75.89
4767;BME280;2397;53.576;9.746;2023-04-30T06:07:15;102506.94;;;6.67;75.83
4767;BME280;2397;53.576;9.746;2023-04-30T06:09:41;102502.91;;;6.77;76.15
4767;BME280;2397;53.576;9.746;2023-04-30T06:12:08;102508.97;;;6.93;75.67
4767;BME280;2397;53.576;9.746;2023-04-30T06:14:35;102505.69;;;7.05;76.66
4767;BME280;2397;53.576;9.746;2023-04-30T06:17:02;102505.75;;;7.19;75.46
4767;BME280;2397;53.576;9.746;2023-04-30T06:19:28;102505.16;;;7.14;74.81
4767;BME280;2397;53.576;9.746;2023-04-30T06:21:55;102507.06;;;7.12;73.96
4767;BME280;2397;53.576;9.746;2023-04-30T06:24:22;102510.41;;;7.30;69.55
4767;BME280;2397;53.576;9.746;2023-04-30T06:26:48;102505.00;;;7.33;67.98
4767;BME280;2397;53.576;9.746;2023-04-30T06:29:14;102513.63;;;7.35;68.26
4767;BME280;2397;53.576;9.746;2023-04-30T06:31:41;102518.94;;;7.49;69.39
4767;BME280;2397;53.576;9.746;2023-04-30T06:34:08;102517.72;;;7.54;67.47
4767;BME280;2397;53.576;9.746;2023-04-30T06:36:34;102520.94;;;7.59;66.73
4767;BME280;2397;53.576;9.746;2023-04-30T06:39:01;102517.94;;;7.65;66.04
4767;BME280;2397;53.576;9.746;2023-04-30T06:41:27;102517.88;;;7.67;65.41
4767;BME280;2397;53.576;9.746;2023-04-30T06:43:54;102515.63;;;7.75;65.11
4767;BME280;2397;53.576;9.746;2023-04-30T06:46:21;102512.75;;;7.79;62.94
4767;BME280;2397;53.576;9.746;2023-04-30T06:48:47;102517.81;;;7.82;61.67
4767;BME280;2397;53.576;9.746;2023-04-30T06:51:14;102510.84;;;7.81;60.20
4767;BME280;2397;53.576;9.746;2023-04-30T06:53:40;102509.94;;;7.96;60.34
4767;BME280;2397;53.576;9.746;2023-04-30T06:56:07;102513.47;;;7.81;60.24
4767;BME280;2397;53.576;9.746;2023-04-30T06:58:33;102514.75;;;7.60;60.88
4767;BME280;2397;53.576;9.746;2023-04-30T07:01:00;102515.75;;;7.58;60.74
4767;BME280;2397;53.576;9.746;2023-04-30T07:03:26;102521.69;;;7.61;60.51
4767;BME280;2397;53.576;9.746;2023-04-30T07:05:53;102522.41;;;7.79;59.87
4767;BME280;2397;53.576;9.746;2023-04-30T07:08:20;102520.16;;;7.87;58.42
4767;BME280;2397;53.576;9.746;2023-04-30T07:10:47;102512.66;;;7.95;57.13
4767;BME280;2397;53.576;9.746;2023-04-30T07:13:14;102525.75;;;8.10;57.01
4767;BME280;2397;53.576;9.746;2023-04-30T07:15:41;102526.75;;;8.23;59.23
4767;BME280;2397;53.576;9.746;2023-04-30T07:18:08;102527.03;;;8.47;58.99
4767;BME280;2397;53.576;9.746;2023-04-30T07:20:35;102522.94;;;8.83;58.47
4767;BME280;2397;53.576;9.746;2023-04-30T07:23:02;102515.31;;;8.93;54.40
4767;BME280;2397;53.576;9.746;2023-04-30T07:25:28;102527.09;;;8.87;55.35
4767;BME280;2397;53.576;9.746;2023-04-30T07:27:55;102516.91;;;8.95;53.06
4767;BME280;2397;53.576;9.746;2023-04-30T07:30:22;102537.72;;;9.26;55.94
4767;BME280;2397;53.576;9.746;2023-04-30T07:32:50;102513.63;;;9.45;51.98
4767;BME280;2397;53.576;9.746;2023-04-30T07:35:17;102511.00;;;9.45;51.10
4767;BME280;2397;53.576;9.746;2023-04-30T07:37:44;102507.91;;;9.12;51.49
4767;BME280;2397;53.576;9.746;2023-04-30T07:40:11;102538.00;;;9.48;56.96
4767;BME280;2397;53.576;9.746;2023-04-30T07:42:42;102527.34;;;9.37;52.13
4767;BME280;2397;53.576;9.746;2023-04-30T07:45:10;102528.31;;;9.22;52.59
4767;BME280;2397;53.576;9.746;2023-04-30T07:47:38;102530.97;;;9.61;54.48
4767;BME280;2397;53.576;9.746;2023-04-30T07:50:05;102523.22;;;9.85;52.23
4767;BME280;2397;53.576;9.746;2023-04-30T07:52:32;102518.88;;;9.71;50.30
4767;BME280;2397;53.576;9.746;2023-04-30T07:54:58;102514.16;;;9.89;50.66
4767;BME280;2397;53.576;9.746;2023-04-30T07:57:25;102512.84;;;9.69;49.56
4767;BME280;2397;53.576;9.746;2023-04-30T07:59:54;102515.25;;;9.21;50.82
4767;BME280;2397;53.576;9.746;2023-04-30T08:02:21;102524.97;;;9.33;51.19
4767;BME280;2397;53.576;9.746;2023-04-30T08:04:48;102518.94;;;9.31;51.12
4767;BME280;2397;53.576;9.746;2023-04-30T08:07:14;102514.97;;;8.85;51.28
4767;BME280;2397;53.576;9.746;2023-04-30T08:09:41;102525.59;;;8.83;51.61
4767;BME280;2397;53.576;9.746;2023-04-30T08:12:08;102519.88;;;8.63;51.81
4767;BME280;2397;53.576;9.746;2023-04-30T08:14:35;102528.47;;;8.93;51.95
4767;BME280;2397;53.576;9.746;2023-04-30T08:17:02;102526.47;;;9.37;50.42
4767;BME280;2397;53.576;9.746;2023-04-30T08:19:28;102519.69;;;9.59;50.42
4767;BME280;2397;53.576;9.746;2023-04-30T08:21:56;102529.69;;;9.93;48.88
4767;BME280;2397;53.576;9.746;2023-04-30T08:24:23;102530.56;;;10.06;48.73
4767;BME280;2397;53.576;9.746;2023-04-30T08:26:50;102535.72;;;10.20;48.87
4767;BME280;2397;53.576;9.746;2023-04-30T08:29:19;102528.69;;;10.46;48.12
4767;BME280;2397;53.576;9.746;2023-04-30T08:31:46;102516.75;;;10.41;46.47
4767;BME280;2397;53.576;9.746;2023-04-30T08:34:12;102528.03;;;10.55;48.44
4767;BME280;2397;53.576;9.746;2023-04-30T08:36:39;102516.13;;;10.86;49.22
4767;BME280;2397;53.576;9.746;2023-04-30T08:39:05;102514.28;;;10.99;47.95
4767;BME280;2397;53.576;9.746;2023-04-30T08:41:33;102501.78;;;11.13;45.85
4767;BME280;2397;53.576;9.746;2023-04-30T08:44:01;102510.59;;;11.25;46.65
4767;BME280;2397;53.576;9.746;2023-04-30T08:46:33;102508.44;;;10.83;46.81
4767;BME280;2397;53.576;9.746;2023-04-30T08:49:01;102511.16;;;10.81;47.82
4767;BME280;2397;53.576;9.746;2023-04-30T08:51:29;102507.69;;;10.81;47.04
4767;BME280;2397;53.576;9.746;2023-04-30T08:53:57;102510.56;;;11.01;46.97
4767;BME280;2397;53.576;9.746;2023-04-30T08:56:24;102511.59;;;10.75;46.67
4767;BME280;2397;53.576;9.746;2023-04-30T08:58:51;102517.53;;;10.66;45.34
4767;BME280;2397;53.576;9.746;2023-04-30T09:01:18;102504.53;;;10.76;44.91
4767;BME280;2397;53.576;9.746;2023-04-30T09:03:45;102519.59;;;10.38;46.61
4767;BME280;2397;53.576;9.746;2023-04-30T09:06:16;102510.63;;;10.27;46.19
4767;BME280;2397;53.576;9.746;2023-04-30T09:08:43;102514.31;;;10.38;47.07
4767;BME280;2397;53.576;9.746;2023-04-30T09:13:51;102514.91;;;10.54;48.23
4767;BME280;2397;53.576;9.746;2023-04-30T09:16:19;102500.03;;;10.53;46.35
4767;BME280;2397;53.576;9.746;2023-04-30T09:18:47;102501.50;;;10.57;47.11
4767;BME280;2397;53.576;9.746;2023-04-30T09:21:14;102523.22;;;10.73;48.38
4767;BME280;2397;53.576;9.746;2023-04-30T09:24:01;102519.75;;;10.85;46.80
4767;BME280;2397;53.576;9.746;2023-04-30T09:26:33;102515.84;;;10.78;46.31
4767;BME280;2397;53.576;9.746;2023-04-30T09:29:01;102515.84;;;10.78;46.78
4767;BME280;2397;53.576;9.746;2023-04-30T09:31:33;102514.28;;;10.99;46.75
4767;BME280;2397;53.576;9.746;2023-04-30T09:34:02;102503.06;;;11.08;45.11
4767;BME280;2397;53.576;9.746;2023-04-30T09:36:28;102505.34;;;11.12;45.95
4767;BME280;2397;53.576;9.746;2023-04-30T09:41:36;102508.25;;;11.33;44.49
4767;BME280;2397;53.576;9.746;2023-04-30T09:44:03;102503.88;;;11.08;45.68
4767;BME280;2397;53.576;9.746;2023-04-30T09:46:34;102492.84;;;11.27;44.38
4767;BME280;2397;53.576;9.746;2023-04-30T09:49:04;102491.25;;;11.01;43.70
4767;BME280;2397;53.576;9.746;2023-04-30T09:51:31;102491.69;;;10.95;45.28
4767;BME280;2397;53.576;9.746;2023-04-30T09:53:58;102496.44;;;11.26;46.89
4767;BME280;2397;53.576;9.746;2023-04-30T09:56:28;102485.56;;;11.65;44.73
4767;BME280;2397;53.576;9.746;2023-04-30T09:58:56;102479.72;;;11.49;44.29
4767;BME280;2397;53.576;9.746;2023-04-30T10:01:26;102480.38;;;11.63;45.75
4767;BME280;2397;53.576;9.746;2023-04-30T10:03:55;102468.75;;;11.66;44.56
4767;BME280;2397;53.576;9.746;2023-04-30T10:06:24;102466.09;;;11.77;43.80
4767;BME280;2397;53.576;9.746;2023-04-30T10:08:55;102471.66;;;11.50;44.12
4767;BME280;2397;53.576;9.746;2023-04-30T10:11:27;102471.16;;;11.80;45.00
4767;BME280;2397;53.576;9.746;2023-04-30T10:14:02;102479.34;;;11.88;45.87
4767;BME280;2397;53.576;9.746;2023-04-30T10:16:41;102465.09;;;12.12;43.17
4767;BME280;2397;53.576;9.746;2023-04-30T10:19:18;102460.88;;;12.32;44.11
4767;BME280;2397;53.576;9.746;2023-04-30T10:21:46;102468.00;;;12.53;44.05
4767;BME280;2397;53.576;9.746;2023-04-30T10:24:13;102469.25;;;12.92;43.63
4767;BME280;2397;53.576;9.746;2023-04-30T10:26:40;102454.16;;;13.03;41.94
4767;BME280;2397;53.576;9.746;2023-04-30T10:29:07;102453.09;;;13.37;42.35
4767;BME280;2397;53.576;9.746;2023-04-30T10:31:34;102437.38;;;13.66;39.71
4767;BME280;2397;53.576;9.746;2023-04-30T10:34:21;102446.53;;;14.03;40.24
4767;BME280;2397;53.576;9.746;2023-04-30T10:36:55;102447.41;;;14.34;41.06
4767;BME280;2397;53.576;9.746;2023-04-30T10:39:25;102433.22;;;13.94;39.83
4767;BME280;2397;53.576;9.746;2023-04-30T10:42:03;102446.66;;;14.02;40.60
4767;BME280;2397;53.576;9.746;2023-04-30T10:44:33;102430.13;;;14.19;38.87
4767;BME280;2397;53.576;9.746;2023-04-30T10:47:02;102440.22;;;13.95;40.10
4767;BME280;2397;53.576;9.746;2023-04-30T10:49:29;102418.09;;;13.64;40.17
4767;BME280;2397;53.576;9.746;2023-04-30T10:52:01;102440.41;;;13.41;41.49
4767;BME280;2397;53.576;9.746;2023-04-30T10:54:30;102440.09;;;13.55;42.46
4767;BME280;2397;53.576;9.746;2023-04-30T10:57:14;102431.28;;;13.54;42.07
4767;BME280;2397;53.576;9.746;2023-04-30T11:00:16;102432.19;;;13.85;40.34
4767;BME280;2397;53.576;9.746;2023-04-30T11:02:46;102425.69;;;13.99;40.08
4767;BME280;2397;53.576;9.746;2023-04-30T11:05:17;102429.53;;;14.45;41.71
4767;BME280;2397;53.576;9.746;2023-04-30T11:08:05;102412.19;;;14.41;39.05
4767;BME280;2397;53.576;9.746;2023-04-30T11:10:36;102435.63;;;14.66;42.77
4767;BME280;2397;53.576;9.746;2023-04-30T11:13:06;102408.09;;;14.96;37.96
4767;BME280;2397;53.576;9.746;2023-04-30T11:15:40;102411.19;;;14.82;39.04
4767;BME280;2397;53.576;9.746;2023-04-30T11:18:07;102404.56;;;14.57;38.91
4767;BME280;2397;53.576;9.746;2023-04-30T11:20:48;102411.88;;;14.93;39.98
4767;BME280;2397;53.576;9.746;2023-04-30T11:23:22;102411.78;;;15.42;37.41
4767;BME280;2397;53.576;9.746;2023-04-30T11:26:06;102403.22;;;15.29;39.62
4767;BME280;2397;53.576;9.746;2023-04-30T11:28:32;102396.63;;;15.52;37.14
4767;BME280;2397;53.576;9.746;2023-04-30T11:31:01;102398.63;;;15.50;37.56
4767;BME280;2397;53.576;9.746;2023-04-30T11:33:30;102397.22;;;15.37;38.90
4767;BME280;2397;53.576;9.746;2023-04-30T11:35:59;102404.75;;;15.03;39.27
4767;BME280;2397;53.576;9.746;2023-04-30T11:38:28;102394.25;;;15.40;39.86
4767;BME280;2397;53.576;9.746;2023-04-30T11:40:56;102395.72;;;15.80;36.72
4767;BME280;2397;53.576;9.746;2023-04-30T11:43:24;102397.00;;;16.49;37.53
4767;BME280;2397;53.576;9.746;2023-04-30T11:46:12;102385.28;;;16.33;35.34
4767;BME280;2397;53.576;9.746;2023-04-30T11:48:40;102387.81;;;16.25;36.75
4767;BME280;2397;53.576;9.746;2023-04-30T11:51:20;102390.44;;;16.07;38.50
4767;BME280;2397;53.576;9.746;2023-04-30T11:53:49;102384.78;;;16.56;35.76
4767;BME280;2397;53.576;9.746;2023-04-30T11:56:23;102375.63;;;15.49;35.61
4767;BME280;2397;53.576;9.746;2023-04-30T11:58:52;102374.75;;;15.68;36.59
4767;BME280;2397;53.576;9.746;2023-04-30T12:01:20;102377.63;;;15.19;36.74
4767;BME280;2397;53.576;9.746;2023-04-30T12:03:49;102376.34;;;15.97;36.06
4767;BME280;2397;53.576;9.746;2023-04-30T12:06:26;102376.84;;;16.64;37.31
4767;BME280;2397;53.576;9.746;2023-04-30T12:08:55;102360.84;;;16.64;34.65
4767;BME280;2397;53.576;9.746;2023-04-30T12:11:26;102367.06;;;16.55;36.52
4767;BME280;2397;53.576;9.746;2023-04-30T12:14:05;102372.75;;;16.88;34.82
4767;BME280;2397;53.576;9.746;2023-04-30T12:16:42;102366.47;;;16.97;33.63
4767;BME280;2397;53.576;9.746;2023-04-30T12:19:11;102352.81;;;16.47;34.25
4767;BME280;2397;53.576;9.746;2023-04-30T12:21:38;102358.50;;;16.34;35.68
4767;BME280;2397;53.576;9.746;2023-04-30T12:24:06;102352.78;;;16.92;34.48
4767;BME280;2397;53.576;9.746;2023-04-30T12:26:35;102360.19;;;17.41;34.32
4767;BME280;2397;53.576;9.746;2023-04-30T12:29:03;102344.97;;;17.59;32.94
4767;BME280;2397;53.576;9.746;2023-04-30T12:31:31;102357.59;;;17.74;34.56
4767;BME280;2397;53.576;9.746;2023-04-30T12:34:06;102353.47;;;17.80;33.52
4767;BME280;2397;53.576;9.746;2023-04-30T12:36:34;102353.84;;;17.93;34.05
4767;BME280;2397;53.576;9.746;2023-04-30T12:39:12;102345.44;;;18.13;33.24
4767;BME280;2397;53.576;9.746;2023-04-30T12:41:40;102344.31;;;18.24;32.49
4767;BME280;2397;53.576;9.746;2023-04-30T12:44:23;102337.88;;;18.01;31.57
4767;BME280;2397;53.576;9.746;2023-04-30T12:46:52;102337.94;;;17.50;31.44
4767;BME280;2397;53.576;9.746;2023-04-30T12:49:32;102347.28;;;17.79;33.86
4767;BME280;2397;53.576;9.746;2023-04-30T12:52:07;102329.13;;;18.24;31.06
4767;BME280;2397;53.576;9.746;2023-04-30T12:54:35;102325.38;;;18.09;29.99
4767;BME280;2397;53.576;9.746;2023-04-30T12:57:07;102321.41;;;18.71;31.07
4767;BME280;2397;53.576;9.746;2023-04-30T13:02:22;102323.69;;;19.62;30.53
4767;BME280;2397;53.576;9.746;2023-04-30T13:04:50;102329.41;;;19.59;29.77
4767;BME280;2397;53.576;9.746;2023-04-30T13:07:16;102329.44;;;19.35;32.28
4767;BME280;2397;53.576;9.746;2023-04-30T13:09:43;102336.94;;;18.75;33.11
4767;BME280;2397;53.576;9.746;2023-04-30T13:12:09;102334.13;;;19.09;35.29
4767;BME280;2397;53.576;9.746;2023-04-30T13:14:36;102323.22;;;18.13;33.48
4767;BME280;2397;53.576;9.746;2023-04-30T13:17:03;102321.72;;;18.10;34.38
4767;BME280;2397;53.576;9.746;2023-04-30T13:19:32;102311.69;;;18.62;34.61
4767;BME280;2397;53.576;9.746;2023-04-30T13:22:00;102302.34;;;18.98;31.90
4767;BME280;2397;53.576;9.746;2023-04-30T13:24:27;102310.88;;;19.33;30.68
4767;BME280;2397;53.576;9.746;2023-04-30T13:26:53;102303.97;;;19.47;32.73
4767;BME280;2397;53.576;9.746;2023-04-30T13:29:20;102299.13;;;19.50;30.56
4767;BME280;2397;53.576;9.746;2023-04-30T13:31:46;102299.78;;;19.99;28.70
4767;BME280;2397;53.576;9.746;2023-04-30T13:34:16;102289.03;;;18.32;30.92
4767;BME280;2397;53.576;9.746;2023-04-30T13:36:42;102291.94;;;18.47;31.57
4767;BME280;2397;53.576;9.746;2023-04-30T13:39:09;102285.13;;;18.11;32.68
4767;BME280;2397;53.576;9.746;2023-04-30T13:41:35;102283.28;;;18.61;32.19
4767;BME280;2397;53.576;9.746;2023-04-30T13:44:02;102282.13;;;18.14;32.32